sensor_id;sensor_type;location;lat;lon;timestamp;pressure;altitude;pressure_sealevel;temperature;humidity
67803;BME280;54601;51.378;-1.342;2022-08-20T00:00:09;100443.61;;;25.14;29.95
67803;BME280;54601;51.378;-1.342;2022-08-20T00:02:38;100447.50;;;25.49;29.81
67803;BME280;54601;51.378;-1.342;2022-08-20T00:04:57;100450.93;;;25.32;29.70
67803;BME280;54601;51.378;-1.342;2022-08-20T00:07:23;100448.43;;;25.41;29.79
67803;BME280;54601;51.378;-1.342;2022-08-20T00:09:49;100449.30;;;25.09;29.97
67803;BME280;54601;51.378;-1.342;2022-08-20T00:12:15;100450.01;;;25.14;29.89
67803;BME280;54601;51.378;-1.342;2022-08-20T00:14:39;100452.97;;;25.10;29.94
67803;BME280;54601;51.378;-1.342;2022-08-20T00:17:05;100451.05;;;25.41;29.92
67803;BME280;54601;51.378;-1.342;2022-08-20T00:19:31;100451.36;;;25.39;29.92
67803;BME280;54601;51.378;-1.342;2022-08-20T00:21:56;100447.08;;;25.28;30.01
67803;BME280;54601;51.378;-1.342;2022-08-20T00:24:22;100445.33;;;25.05;29.91
67803;BME280;54601;51.378;-1.342;2022-08-20T00:26:47;100450.43;;;24.75;30.05
67803;BME280;54601;51.378;-1.342;2022-08-20T00:29:13;100445.85;;;25.19;30.01
67803;BME280;54601;51.378;-1.342;2022-08-20T00:31:38;100444.35;;;25.27;29.99
67803;BME280;54601;51.378;-1.342;2022-08-20T00:34:04;100442.27;;;25.18;30.03
67803;BME280;54601;51.378;-1.342;2022-08-20T00:36:30;100441.75;;;25.20;30.09
67803;BME280;54601;51.378;-1.342;2022-08-20T00:38:55;100443.82;;;25.10;30.11
67803;BME280;54601;51.378;-1.342;2022-08-20T00:41:24;100443.64;;;25.15;30.18
67803;BME280;54601;51.378;-1.342;2022-08-20T00:43:49;100441.61;;;25.02;30.03
67803;BME280;54601;51.378;-1.342;2022-08-20T00:46:15;100440.30;;;25.27;29.99
67803;BME280;54601;51.378;-1.342;2022-08-20T00:48:41;100438.60;;;25.37;29.86
67803;BME280;54601;51.378;-1.342;2022-08-20T00:51:07;100439.63;;;25.23;29.93
67803;BME280;54601;51.378;-1.342;2022-08-20T00:53:29;100439.99;;;25.12;30.10
67803;BME280;54601;51.378;-1.342;2022-08-20T00:55:55;100432.36;;;25.37;29.82
67803;BME280;54601;51.378;-1.342;2022-08-20T00:58:20;100431.63;;;25.18;29.99
67803;BME280;54601;51.378;-1.342;2022-08-20T01:00:47;100431.66;;;25.21;30.02
67803;BME280;54601;51.378;-1.342;2022-08-20T01:03:14;100430.85;;;25.12;29.83
67803;BME280;54601;51.378;-1.342;2022-08-20T01:05:39;100435.07;;;24.88;30.03
67803;BME280;54601;51.378;-1.342;2022-08-20T01:08:04;100431.28;;;25.17;30.01
67803;BME280;54601;51.378;-1.342;2022-08-20T01:10:33;100431.59;;;24.97;30.21
67803;BME280;54601;51.378;-1.342;2022-08-20T01:12:56;100430.52;;;24.82;30.09
67803;BME280;54601;51.378;-1.342;2022-08-20T01:15:22;100431.78;;;24.66;30.32
67803;BME280;54601;51.378;-1.342;2022-08-20T01:17:48;100434.60;;;25.04;30.04
67803;BME280;54601;51.378;-1.342;2022-08-20T01:20:16;100433.04;;;25.16;29.99
67803;BME280;54601;51.378;-1.342;2022-08-20T01:22:41;100431.76;;;24.84;30.02
67803;BME280;54601;51.378;-1.342;2022-08-20T01:25:08;100432.94;;;24.77;30.21
67803;BME280;54601;51.378;-1.342;2022-08-20T01:27:29;100432.76;;;25.04;30.12
67803;BME280;54601;51.378;-1.342;2022-08-20T01:29:53;100433.73;;;25.10;30.04
67803;BME280;54601;51.378;-1.342;2022-08-20T01:32:19;100434.27;;;25.01;30.05
67803;BME280;54601;51.378;-1.342;2022-08-20T01:34:45;100434.12;;;24.85;30.31
67803;BME280;54601;51.378;-1.342;2022-08-20T01:37:10;100438.23;;;24.73;30.37
67803;BME280;54601;51.378;-1.342;2022-08-20T01:39:36;100440.05;;;24.84;30.26
67803;BME280;54601;51.378;-1.342;2022-08-20T01:42:06;100438.49;;;24.79;30.25
67803;BME280;54601;51.378;-1.342;2022-08-20T01:44:28;100435.00;;;24.79;30.30
67803;BME280;54601;51.378;-1.342;2022-08-20T01:46:53;100437.04;;;24.87;30.34
67803;BME280;54601;51.378;-1.342;2022-08-20T01:49:21;100435.99;;;24.79;30.30
67803;BME280;54601;51.378;-1.342;2022-08-20T01:51:44;100437.53;;;24.89;30.24
67803;BME280;54601;51.378;-1.342;2022-08-20T01:54:10;100440.49;;;24.70;30.10
67803;BME280;54601;51.378;-1.342;2022-08-20T01:59:04;100438.17;;;24.69;30.38
67803;BME280;54601;51.378;-1.342;2022-08-20T02:01:29;100438.44;;;24.84;30.15
67803;BME280;54601;51.378;-1.342;2022-08-20T02:03:53;100439.73;;;25.09;29.96
67803;BME280;54601;51.378;-1.342;2022-08-20T02:06:21;100440.39;;;25.01;29.99
67803;BME280;54601;51.378;-1.342;2022-08-20T02:08:44;100437.49;;;25.13;29.70
67803;BME280;54601;51.378;-1.342;2022-08-20T02:11:10;100438.70;;;24.67;30.20
67803;BME280;54601;51.378;-1.342;2022-08-20T02:13:35;100435.91;;;24.80;30.17
67803;BME280;54601;51.378;-1.342;2022-08-20T02:16:01;100432.35;;;24.63;30.20
67803;BME280;54601;51.378;-1.342;2022-08-20T02:18:26;100433.22;;;24.98;30.16
67803;BME280;54601;51.378;-1.342;2022-08-20T02:20:52;100430.59;;;24.88;30.08
67803;BME280;54601;51.378;-1.342;2022-08-20T02:23:17;100431.35;;;25.04;29.89
67803;BME280;54601;51.378;-1.342;2022-08-20T02:25:45;100428.57;;;24.82;30.15
67803;BME280;54601;51.378;-1.342;2022-08-20T02:28:12;100427.33;;;24.92;29.86
67803;BME280;54601;51.378;-1.342;2022-08-20T02:30:37;100428.27;;;24.96;29.73
67803;BME280;54601;51.378;-1.342;2022-08-20T02:33:02;100430.02;;;25.19;29.97
67803;BME280;54601;51.378;-1.342;2022-08-20T02:35:26;100425.79;;;24.99;29.82
67803;BME280;54601;51.378;-1.342;2022-08-20T02:37:52;100422.44;;;24.93;30.11
67803;BME280;54601;51.378;-1.342;2022-08-20T02:40:19;100421.30;;;24.67;30.24
67803;BME280;54601;51.378;-1.342;2022-08-20T02:42:43;100418.19;;;24.68;30.25
67803;BME280;54601;51.378;-1.342;2022-08-20T02:45:10;100414.92;;;24.55;30.40
67803;BME280;54601;51.378;-1.342;2022-08-20T02:47:34;100413.12;;;24.74;30.11
67803;BME280;54601;51.378;-1.342;2022-08-20T02:49:59;100413.31;;;24.89;30.29
67803;BME280;54601;51.378;-1.342;2022-08-20T02:52:25;100410.93;;;24.70;30.19
67803;BME280;54601;51.378;-1.342;2022-08-20T02:54:51;100409.58;;;24.64;30.34
67803;BME280;54601;51.378;-1.342;2022-08-20T02:57:19;100411.09;;;24.57;30.29
67803;BME280;54601;51.378;-1.342;2022-08-20T02:59:42;100412.90;;;24.67;30.27
67803;BME280;54601;51.378;-1.342;2022-08-20T03:02:08;100408.02;;;24.66;30.23
67803;BME280;54601;51.378;-1.342;2022-08-20T03:04:33;100408.38;;;24.99;30.21
67803;BME280;54601;51.378;-1.342;2022-08-20T03:06:59;100408.10;;;25.07;29.84
67803;BME280;54601;51.378;-1.342;2022-08-20T03:09:25;100411.37;;;24.88;29.55
67803;BME280;54601;51.378;-1.342;2022-08-20T03:11:50;100412.40;;;25.00;29.80
67803;BME280;54601;51.378;-1.342;2022-08-20T03:14:16;100410.02;;;25.18;29.43
67803;BME280;54601;51.378;-1.342;2022-08-20T03:16:42;100408.64;;;25.09;29.79
67803;BME280;54601;51.378;-1.342;2022-08-20T03:19:07;100413.33;;;24.93;29.91
67803;BME280;54601;51.378;-1.342;2022-08-20T03:21:33;100411.64;;;24.85;29.98
67803;BME280;54601;51.378;-1.342;2022-08-20T03:23:59;100410.98;;;24.74;30.12
67803;BME280;54601;51.378;-1.342;2022-08-20T03:26:24;100406.49;;;24.71;30.05
67803;BME280;54601;51.378;-1.342;2022-08-20T03:28:50;100405.11;;;24.78;30.10
67803;BME280;54601;51.378;-1.342;2022-08-20T03:31:16;100405.04;;;24.67;30.09
67803;BME280;54601;51.378;-1.342;2022-08-20T03:33:42;100402.54;;;25.01;30.04
67803;BME280;54601;51.378;-1.342;2022-08-20T03:36:07;100402.93;;;25.02;30.00
67803;BME280;54601;51.378;-1.342;2022-08-20T03:38:33;100395.93;;;24.91;29.74
67803;BME280;54601;51.378;-1.342;2022-08-20T03:40:59;100398.83;;;24.70;30.05
67803;BME280;54601;51.378;-1.342;2022-08-20T03:43:24;100402.88;;;24.62;30.22
67803;BME280;54601;51.378;-1.342;2022-08-20T03:45:50;100401.07;;;24.57;30.29
67803;BME280;54601;51.378;-1.342;2022-08-20T03:48:18;100399.36;;;24.76;29.99
67803;BME280;54601;51.378;-1.342;2022-08-20T03:50:42;100399.25;;;24.37;30.27
67803;BME280;54601;51.378;-1.342;2022-08-20T03:53:08;100401.49;;;24.56;30.23
67803;BME280;54601;51.378;-1.342;2022-08-20T03:55:32;100400.95;;;24.62;30.13
67803;BME280;54601;51.378;-1.342;2022-08-20T03:58:01;100399.13;;;25.03;29.97
67803;BME280;54601;51.378;-1.342;2022-08-20T04:00:26;100395.71;;;24.64;30.18
67803;BME280;54601;51.378;-1.342;2022-08-20T04:02:49;100395.66;;;24.70;30.01
67803;BME280;54601;51.378;-1.342;2022-08-20T04:05:15;100397.67;;;24.66;30.12
67803;BME280;54601;51.378;-1.342;2022-08-20T04:07:41;100398.15;;;24.56;30.21
67803;BME280;54601;51.378;-1.342;2022-08-20T04:10:09;100397.05;;;24.66;30.11
67803;BME280;54601;51.378;-1.342;2022-08-20T04:12:32;100395.37;;;24.55;30.23
67803;BME280;54601;51.378;-1.342;2022-08-20T04:14:58;100397.27;;;24.83;30.21
67803;BME280;54601;51.378;-1.342;2022-08-20T04:17:23;100401.09;;;24.57;30.34
67803;BME280;54601;51.378;-1.342;2022-08-20T04:19:49;100400.67;;;24.63;30.16
67803;BME280;54601;51.378;-1.342;2022-08-20T04:22:15;100397.35;;;24.56;30.21
67803;BME280;54601;51.378;-1.342;2022-08-20T04:24:41;100394.38;;;24.49;30.27
67803;BME280;54601;51.378;-1.342;2022-08-20T04:27:06;100397.86;;;24.53;30.42
67803;BME280;54601;51.378;-1.342;2022-08-20T04:29:32;100400.02;;;24.40;30.41
67803;BME280;54601;51.378;-1.342;2022-08-20T04:31:57;100403.25;;;24.78;30.30
67803;BME280;54601;51.378;-1.342;2022-08-20T04:34:23;100407.44;;;24.80;30.28
67803;BME280;54601;51.378;-1.342;2022-08-20T04:36:49;100408.76;;;24.61;30.19
67803;BME280;54601;51.378;-1.342;2022-08-20T04:39:15;100411.81;;;24.62;30.48
67803;BME280;54601;51.378;-1.342;2022-08-20T04:41:40;100413.06;;;24.48;30.29
67803;BME280;54601;51.378;-1.342;2022-08-20T04:44:06;100414.08;;;25.01;30.23
67803;BME280;54601;51.378;-1.342;2022-08-20T04:46:31;100415.56;;;24.39;30.43
67803;BME280;54601;51.378;-1.342;2022-08-20T04:48:57;100417.36;;;24.45;30.43
67803;BME280;54601;51.378;-1.342;2022-08-20T04:51:23;100421.14;;;24.87;30.47
67803;BME280;54601;51.378;-1.342;2022-08-20T04:53:48;100421.45;;;24.59;30.48
67803;BME280;54601;51.378;-1.342;2022-08-20T04:56:14;100423.04;;;24.54;30.25
67803;BME280;54601;51.378;-1.342;2022-08-20T04:58:40;100426.50;;;24.43;30.36
67803;BME280;54601;51.378;-1.342;2022-08-20T05:01:07;100431.20;;;24.69;30.40
67803;BME280;54601;51.378;-1.342;2022-08-20T05:03:31;100429.56;;;24.76;30.27
67803;BME280;54601;51.378;-1.342;2022-08-20T05:05:57;100426.11;;;24.54;30.20
67803;BME280;54601;51.378;-1.342;2022-08-20T05:08:24;100426.18;;;24.66;30.43
67803;BME280;54601;51.378;-1.342;2022-08-20T05:10:48;100428.21;;;24.19;30.69
67803;BME280;54601;51.378;-1.342;2022-08-20T05:13:14;100427.81;;;24.65;30.41
67803;BME280;54601;51.378;-1.342;2022-08-20T05:15:39;100427.32;;;24.54;30.24
67803;BME280;54601;51.378;-1.342;2022-08-20T05:18:06;100429.31;;;24.72;30.43
67803;BME280;54601;51.378;-1.342;2022-08-20T05:20:35;100431.61;;;24.79;30.55
67803;BME280;54601;51.378;-1.342;2022-08-20T05:22:56;100429.25;;;24.35;30.46
67803;BME280;54601;51.378;-1.342;2022-08-20T05:25:22;100430.28;;;24.58;30.62
67803;BME280;54601;51.378;-1.342;2022-08-20T05:27:48;100430.06;;;24.56;30.24
67803;BME280;54601;51.378;-1.342;2022-08-20T05:30:14;100430.72;;;24.64;30.52
67803;BME280;54601;51.378;-1.342;2022-08-20T05:32:39;100431.70;;;24.83;30.47
67803;BME280;54601;51.378;-1.342;2022-08-20T05:35:07;100428.49;;;24.66;30.47
67803;BME280;54601;51.378;-1.342;2022-08-20T05:37:30;100420.05;;;24.15;30.80
67803;BME280;54601;51.378;-1.342;2022-08-20T05:39:56;100420.57;;;24.77;30.63
67803;BME280;54601;51.378;-1.342;2022-08-20T05:42:22;100423.35;;;24.49;30.50
67803;BME280;54601;51.378;-1.342;2022-08-20T05:44:47;100422.48;;;24.34;30.51
67803;BME280;54601;51.378;-1.342;2022-08-20T05:47:13;100426.35;;;24.97;30.19
67803;BME280;54601;51.378;-1.342;2022-08-20T05:49:38;100423.83;;;24.66;30.43
67803;BME280;54601;51.378;-1.342;2022-08-20T05:52:04;100426.96;;;24.57;30.50
67803;BME280;54601;51.378;-1.342;2022-08-20T05:54:30;100428.33;;;24.56;30.61
67803;BME280;54601;51.378;-1.342;2022-08-20T05:56:56;100433.31;;;24.41;30.70
67803;BME280;54601;51.378;-1.342;2022-08-20T05:59:21;100433.80;;;24.45;30.73
67803;BME280;54601;51.378;-1.342;2022-08-20T06:01:47;100437.67;;;24.98;30.39
67803;BME280;54601;51.378;-1.342;2022-08-20T06:04:12;100439.67;;;24.79;30.37
67803;BME280;54601;51.378;-1.342;2022-08-20T06:06:38;100441.56;;;24.78;30.37
67803;BME280;54601;51.378;-1.342;2022-08-20T06:09:04;100445.22;;;24.49;30.44
67803;BME280;54601;51.378;-1.342;2022-08-20T06:11:29;100450.72;;;24.90;30.30
67803;BME280;54601;51.378;-1.342;2022-08-20T06:13:55;100449.53;;;24.72;30.21
67803;BME280;54601;51.378;-1.342;2022-08-20T06:16:20;100455.26;;;24.53;30.77
67803;BME280;54601;51.378;-1.342;2022-08-20T06:18:46;100452.95;;;24.37;31.01
67803;BME280;54601;51.378;-1.342;2022-08-20T06:21:12;100456.44;;;24.45;30.90
67803;BME280;54601;51.378;-1.342;2022-08-20T06:23:37;100458.39;;;24.52;30.84
67803;BME280;54601;51.378;-1.342;2022-08-20T06:26:03;100461.31;;;24.25;30.83
67803;BME280;54601;51.378;-1.342;2022-08-20T06:28:28;100466.08;;;24.49;30.91
67803;BME280;54601;51.378;-1.342;2022-08-20T06:30:54;100469.99;;;24.77;30.83
67803;BME280;54601;51.378;-1.342;2022-08-20T06:33:20;100466.84;;;24.57;30.86
67803;BME280;54601;51.378;-1.342;2022-08-20T06:35:46;100460.71;;;24.72;30.68
67803;BME280;54601;51.378;-1.342;2022-08-20T06:38:11;100457.35;;;24.73;30.40
67803;BME280;54601;51.378;-1.342;2022-08-20T06:40:37;100455.06;;;24.87;30.26
67803;BME280;54601;51.378;-1.342;2022-08-20T06:43:02;100458.98;;;25.11;30.09
67803;BME280;54601;51.378;-1.342;2022-08-20T06:45:30;100460.23;;;25.22;29.99
67803;BME280;54601;51.378;-1.342;2022-08-20T06:47:55;100461.18;;;25.27;30.04
67803;BME280;54601;51.378;-1.342;2022-08-20T06:50:22;100459.79;;;25.28;30.08
67803;BME280;54601;51.378;-1.342;2022-08-20T06:52:45;100462.87;;;25.37;29.99
67803;BME280;54601;51.378;-1.342;2022-08-20T06:55:11;100467.39;;;25.32;30.21
67803;BME280;54601;51.378;-1.342;2022-08-20T06:57:37;100465.20;;;25.33;30.33
67803;BME280;54601;51.378;-1.342;2022-08-20T07:00:04;100468.08;;;25.38;30.37
67803;BME280;54601;51.378;-1.342;2022-08-20T07:02:27;100471.00;;;25.47;30.34
67803;BME280;54601;51.378;-1.342;2022-08-20T07:04:53;100471.73;;;25.57;30.30
67803;BME280;54601;51.378;-1.342;2022-08-20T07:07:19;100471.89;;;25.94;30.23
67803;BME280;54601;51.378;-1.342;2022-08-20T07:09:45;100474.32;;;25.78;30.19
67803;BME280;54601;51.378;-1.342;2022-08-20T07:12:10;100470.82;;;25.84;30.18
67803;BME280;54601;51.378;-1.342;2022-08-20T07:14:36;100473.94;;;26.11;30.25
67803;BME280;54601;51.378;-1.342;2022-08-20T07:17:02;100474.03;;;25.77;30.39
67803;BME280;54601;51.378;-1.342;2022-08-20T07:19:27;100477.95;;;25.91;30.30
67803;BME280;54601;51.378;-1.342;2022-08-20T07:21:53;100474.67;;;26.06;30.19
67803;BME280;54601;51.378;-1.342;2022-08-20T07:24:18;100474.31;;;26.09;30.19
67803;BME280;54601;51.378;-1.342;2022-08-20T07:26:44;100472.82;;;26.15;30.25
67803;BME280;54601;51.378;-1.342;2022-08-20T07:29:10;100467.69;;;26.22;30.19
67803;BME280;54601;51.378;-1.342;2022-08-20T07:31:35;100460.64;;;26.00;29.97
67803;BME280;54601;51.378;-1.342;2022-08-20T07:34:01;100459.68;;;26.29;29.92
67803;BME280;54601;51.378;-1.342;2022-08-20T07:36:26;100457.12;;;26.15;29.88
67803;BME280;54601;51.378;-1.342;2022-08-20T07:38:52;100453.83;;;26.25;29.78
67803;BME280;54601;51.378;-1.342;2022-08-20T07:41:18;100452.41;;;26.30;29.74
67803;BME280;54601;51.378;-1.342;2022-08-20T07:43:44;100458.04;;;26.47;29.62
67803;BME280;54601;51.378;-1.342;2022-08-20T07:46:08;100455.94;;;26.45;29.65
67803;BME280;54601;51.378;-1.342;2022-08-20T07:48:35;100455.76;;;26.59;29.54
67803;BME280;54601;51.378;-1.342;2022-08-20T07:51:01;100457.25;;;26.71;29.43
67803;BME280;54601;51.378;-1.342;2022-08-20T07:53:26;100456.73;;;26.43;29.47
67803;BME280;54601;51.378;-1.342;2022-08-20T07:55:52;100458.88;;;26.80;29.43
67803;BME280;54601;51.378;-1.342;2022-08-20T07:58:18;100460.10;;;26.88;29.36
67803;BME280;54601;51.378;-1.342;2022-08-20T08:00:42;100454.14;;;27.03;28.93
67803;BME280;54601;51.378;-1.342;2022-08-20T08:03:08;100457.30;;;27.09;29.14
67803;BME280;54601;51.378;-1.342;2022-08-20T08:05:35;100459.37;;;27.03;29.23
67803;BME280;54601;51.378;-1.342;2022-08-20T08:07:59;100459.80;;;26.74;29.24
67803;BME280;54601;51.378;-1.342;2022-08-20T08:10:24;100457.63;;;27.04;29.26
67803;BME280;54601;51.378;-1.342;2022-08-20T08:12:53;100458.34;;;26.83;29.15
67803;BME280;54601;51.378;-1.342;2022-08-20T08:15:17;100459.77;;;27.13;29.16
67803;BME280;54601;51.378;-1.342;2022-08-20T08:17:40;100456.70;;;26.88;29.18
67803;BME280;54601;51.378;-1.342;2022-08-20T08:20:07;100459.20;;;27.02;29.00
67803;BME280;54601;51.378;-1.342;2022-08-20T08:22:31;100460.40;;;27.30;29.05
67803;BME280;54601;51.378;-1.342;2022-08-20T08:24:56;100459.19;;;27.08;28.97
67803;BME280;54601;51.378;-1.342;2022-08-20T08:27:22;100462.04;;;27.18;29.36
67803;BME280;54601;51.378;-1.342;2022-08-20T08:29:47;100466.42;;;27.15;29.45
67803;BME280;54601;51.378;-1.342;2022-08-20T08:32:13;100468.40;;;27.15;29.44
67803;BME280;54601;51.378;-1.342;2022-08-20T08:34:38;100472.98;;;27.15;29.53
67803;BME280;54601;51.378;-1.342;2022-08-20T08:37:04;100474.93;;;27.08;29.41
67803;BME280;54601;51.378;-1.342;2022-08-20T08:39:29;100472.07;;;27.39;29.36
67803;BME280;54601;51.378;-1.342;2022-08-20T08:41:56;100480.18;;;27.15;29.25
67803;BME280;54601;51.378;-1.342;2022-08-20T08:44:22;100479.24;;;27.04;29.25
67803;BME280;54601;51.378;-1.342;2022-08-20T08:46:46;100483.70;;;26.87;29.79
67803;BME280;54601;51.378;-1.342;2022-08-20T08:49:15;100473.96;;;26.81;30.05
67803;BME280;54601;51.378;-1.342;2022-08-20T08:51:41;100472.04;;;27.09;29.74
67803;BME280;54601;51.378;-1.342;2022-08-20T08:54:04;100472.13;;;27.07;29.51
67803;BME280;54601;51.378;-1.342;2022-08-20T08:56:29;100467.88;;;27.07;29.61
67803;BME280;54601;51.378;-1.342;2022-08-20T08:58:54;100470.59;;;26.98;29.66
67803;BME280;54601;51.378;-1.342;2022-08-20T09:01:21;100475.03;;;26.93;29.75
67803;BME280;54601;51.378;-1.342;2022-08-20T09:03:48;100472.69;;;26.99;29.68
67803;BME280;54601;51.378;-1.342;2022-08-20T09:06:13;100470.93;;;26.91;29.52
67803;BME280;54601;51.378;-1.342;2022-08-20T09:08:41;100471.52;;;26.31;29.82
67803;BME280;54601;51.378;-1.342;2022-08-20T09:11:03;100478.07;;;26.98;29.35
67803;BME280;54601;51.378;-1.342;2022-08-20T09:13:26;100473.60;;;26.05;29.69
67803;BME280;54601;51.378;-1.342;2022-08-20T09:15:51;100470.33;;;26.40;29.46
67803;BME280;54601;51.378;-1.342;2022-08-20T09:18:17;100466.68;;;26.19;29.83
67803;BME280;54601;51.378;-1.342;2022-08-20T09:20:43;100466.59;;;26.08;30.03
67803;BME280;54601;51.378;-1.342;2022-08-20T09:23:08;100465.46;;;26.20;29.80
67803;BME280;54601;51.378;-1.342;2022-08-20T09:25:34;100467.95;;;26.36;29.33
67803;BME280;54601;51.378;-1.342;2022-08-20T09:27:59;100466.41;;;26.75;29.20
67803;BME280;54601;51.378;-1.342;2022-08-20T09:30:25;100467.23;;;26.73;29.15
67803;BME280;54601;51.378;-1.342;2022-08-20T09:32:50;100459.73;;;26.50;29.09
67803;BME280;54601;51.378;-1.342;2022-08-20T09:35:16;100456.74;;;26.71;29.14
67803;BME280;54601;51.378;-1.342;2022-08-20T09:37:41;100457.27;;;26.45;29.38
67803;BME280;54601;51.378;-1.342;2022-08-20T09:40:08;100452.83;;;25.95;29.84
67803;BME280;54601;51.378;-1.342;2022-08-20T09:42:33;100452.82;;;25.96;29.86
67803;BME280;54601;51.378;-1.342;2022-08-20T09:44:58;100446.63;;;26.33;29.40
67803;BME280;54601;51.378;-1.342;2022-08-20T09:47:24;100445.45;;;26.16;29.52
67803;BME280;54601;51.378;-1.342;2022-08-20T09:49:49;100451.00;;;25.35;30.38
67803;BME280;54601;51.378;-1.342;2022-08-20T09:52:20;100446.15;;;25.14;30.61
67803;BME280;54601;51.378;-1.342;2022-08-20T09:54:40;100444.69;;;25.49;29.97
67803;BME280;54601;51.378;-1.342;2022-08-20T09:57:07;100440.75;;;26.06;29.44
67803;BME280;54601;51.378;-1.342;2022-08-20T09:59:32;100435.54;;;26.03;29.54
67803;BME280;54601;51.378;-1.342;2022-08-20T10:01:57;100432.81;;;25.88;29.66
67803;BME280;54601;51.378;-1.342;2022-08-20T10:04:22;100433.65;;;25.32;30.08
67803;BME280;54601;51.378;-1.342;2022-08-20T10:06:48;100434.00;;;24.70;30.73
67803;BME280;54601;51.378;-1.342;2022-08-20T10:09:13;100436.98;;;25.25;30.15
67803;BME280;54601;51.378;-1.342;2022-08-20T10:11:39;100429.32;;;25.76;29.69
67803;BME280;54601;51.378;-1.342;2022-08-20T10:14:04;100432.73;;;25.68;29.74
67803;BME280;54601;51.378;-1.342;2022-08-20T10:16:30;100432.82;;;26.55;29.35
67803;BME280;54601;51.378;-1.342;2022-08-20T10:18:56;100428.54;;;26.40;29.06
67803;BME280;54601;51.378;-1.342;2022-08-20T10:21:21;100431.50;;;26.47;29.03
67803;BME280;54601;51.378;-1.342;2022-08-20T10:23:47;100422.80;;;26.23;29.08
67803;BME280;54601;51.378;-1.342;2022-08-20T10:26:13;100422.37;;;26.29;29.28
67803;BME280;54601;51.378;-1.342;2022-08-20T10:28:38;100426.71;;;25.96;29.66
67803;BME280;54601;51.378;-1.342;2022-08-20T10:31:05;100420.73;;;25.83;29.55
67803;BME280;54601;51.378;-1.342;2022-08-20T10:33:29;100422.51;;;26.23;29.56
67803;BME280;54601;51.378;-1.342;2022-08-20T10:35:54;100421.04;;;25.86;29.68
67803;BME280;54601;51.378;-1.342;2022-08-20T10:38:20;100418.14;;;26.22;29.25
67803;BME280;54601;51.378;-1.342;2022-08-20T10:40:46;100421.72;;;26.34;29.18
67803;BME280;54601;51.378;-1.342;2022-08-20T10:43:11;100422.12;;;26.35;29.12
67803;BME280;54601;51.378;-1.342;2022-08-20T10:45:37;100423.62;;;26.31;29.23
67803;BME280;54601;51.378;-1.342;2022-08-20T10:48:02;100420.95;;;26.33;29.14
67803;BME280;54601;51.378;-1.342;2022-08-20T10:50:28;100418.96;;;26.32;29.17
67803;BME280;54601;51.378;-1.342;2022-08-20T10:52:53;100424.43;;;26.33;29.06
67803;BME280;54601;51.378;-1.342;2022-08-20T10:55:19;100421.52;;;26.56;28.99
67803;BME280;54601;51.378;-1.342;2022-08-20T10:57:45;100422.10;;;25.38;29.64
67803;BME280;54601;51.378;-1.342;2022-08-20T11:00:12;100420.48;;;26.47;29.06
67803;BME280;54601;51.378;-1.342;2022-08-20T11:02:36;100421.57;;;26.51;28.98
67803;BME280;54601;51.378;-1.342;2022-08-20T11:05:01;100417.68;;;26.26;29.52
67803;BME280;54601;51.378;-1.342;2022-08-20T11:07:29;100410.93;;;26.68;28.93
67803;BME280;54601;51.378;-1.342;2022-08-20T11:09:52;100408.23;;;26.54;29.00
67803;BME280;54601;51.378;-1.342;2022-08-20T11:12:19;100407.71;;;26.84;28.69
67803;BME280;54601;51.378;-1.342;2022-08-20T11:14:44;100406.06;;;26.62;28.83
67803;BME280;54601;51.378;-1.342;2022-08-20T11:17:09;100397.71;;;26.60;28.85
67803;BME280;54601;51.378;-1.342;2022-08-20T11:19:39;100394.07;;;26.71;28.86
67803;BME280;54601;51.378;-1.342;2022-08-20T11:22:00;100385.89;;;26.75;28.87
67803;BME280;54601;51.378;-1.342;2022-08-20T11:24:26;100388.41;;;26.67;29.23
67803;BME280;54601;51.378;-1.342;2022-08-20T11:26:51;100390.97;;;25.92;30.05
67803;BME280;54601;51.378;-1.342;2022-08-20T11:29:17;100390.22;;;26.67;29.39
67803;BME280;54601;51.378;-1.342;2022-08-20T11:31:42;100395.93;;;26.36;29.33
67803;BME280;54601;51.378;-1.342;2022-08-20T11:34:08;100398.16;;;26.55;29.20
67803;BME280;54601;51.378;-1.342;2022-08-20T11:36:34;100389.10;;;26.77;29.22
67803;BME280;54601;51.378;-1.342;2022-08-20T11:38:59;100395.55;;;26.49;29.27
67803;BME280;54601;51.378;-1.342;2022-08-20T11:41:24;100396.41;;;26.50;29.35
67803;BME280;54601;51.378;-1.342;2022-08-20T11:43:50;100398.82;;;26.15;29.05
67803;BME280;54601;51.378;-1.342;2022-08-20T11:46:15;100398.21;;;26.73;29.11
67803;BME280;54601;51.378;-1.342;2022-08-20T11:48:41;100402.01;;;26.61;28.96
67803;BME280;54601;51.378;-1.342;2022-08-20T11:51:06;100401.86;;;26.96;28.98
67803;BME280;54601;51.378;-1.342;2022-08-20T11:53:32;100394.06;;;26.72;28.80
67803;BME280;54601;51.378;-1.342;2022-08-20T11:55:58;100401.58;;;27.03;28.81
67803;BME280;54601;51.378;-1.342;2022-08-20T11:58:23;100402.45;;;26.70;28.89
67803;BME280;54601;51.378;-1.342;2022-08-20T12:00:49;100398.70;;;26.96;28.84
67803;BME280;54601;51.378;-1.342;2022-08-20T12:03:15;100396.32;;;26.47;28.91
67803;BME280;54601;51.378;-1.342;2022-08-20T12:05:42;100400.56;;;26.56;28.99
67803;BME280;54601;51.378;-1.342;2022-08-20T12:08:06;100401.49;;;26.58;29.03
67803;BME280;54601;51.378;-1.342;2022-08-20T12:10:31;100399.55;;;25.80;29.52
67803;BME280;54601;51.378;-1.342;2022-08-20T12:12:56;100398.67;;;26.29;29.24
67803;BME280;54601;51.378;-1.342;2022-08-20T12:15:22;100394.95;;;26.82;28.57
67803;BME280;54601;51.378;-1.342;2022-08-20T12:17:47;100395.90;;;26.79;28.71
67803;BME280;54601;51.378;-1.342;2022-08-20T12:20:14;100393.03;;;26.55;28.65
67803;BME280;54601;51.378;-1.342;2022-08-20T12:22:39;100392.16;;;26.36;28.88
67803;BME280;54601;51.378;-1.342;2022-08-20T12:25:05;100386.42;;;25.94;29.22
67803;BME280;54601;51.378;-1.342;2022-08-20T12:27:31;100380.15;;;26.53;28.64
67803;BME280;54601;51.378;-1.342;2022-08-20T12:29:57;100383.20;;;26.49;28.56
67803;BME280;54601;51.378;-1.342;2022-08-20T12:32:21;100379.36;;;26.68;28.51